Time;durP1;ratioP1;P1;durP2;ratioP2;P2;SDS_P1;SDS_P2;PMS_P1;PMS_P2;Temp;Humidity;BMP_temperature;BMP_pressure;BME280_temperature;BME280_humidity;BME280_pressure;Samples;Min_cycle;Max_cycle;Signal;HPM_P1;HPM_P2
2023/01/18 00:02:02;;;;;;;7.95;2.33;;;;;;;4.66;76.66;98532.69;4943508;28;20441;-75
2023/01/18 00:04:29;;;;;;;6.57;3.28;;;;;;;4.65;76.53;98536.16;4940349;28;20071;-74
2023/01/18 00:06:57;;;;;;;5.10;2.72;;;;;;;4.63;76.40;98532.78;4938481;28;20065;-74
2023/01/18 00:09:24;;;;;;;7.05;3.17;;;;;;;4.63;76.48;98532.78;4944451;28;20051;-74
2023/01/18 00:11:51;;;;;;;6.28;2.08;;;;;;;4.63;76.71;98537.94;4941222;28;20078;-74
2023/01/18 00:14:18;;;;;;;5.55;2.25;;;;;;;4.62;76.63;98531.09;4941724;28;20048;-74
2023/01/18 00:16:45;;;;;;;7.47;2.30;;;;;;;4.64;76.22;98528.44;4938471;28;20054;-73
2023/01/18 00:19:13;;;;;;;5.13;2.10;;;;;;;4.62;76.40;98533.69;4942779;28;20051;-75
2023/01/18 00:21:40;;;;;;;5.07;2.13;;;;;;;4.50;76.27;98505.63;4941585;28;20052;-74
2023/01/18 00:24:13;;;;;;;3.28;1.33;;;;;;;4.61;76.13;98531.13;4941141;28;20500;-74
2023/01/18 00:26:42;;;;;;;3.97;0.43;;;;;;;4.61;76.21;98529.41;4942544;28;20051;-74
2023/01/18 00:29:10;;;;;;;2.67;0.75;;;;;;;4.61;76.24;98524.25;4942240;28;20052;-74
2023/01/18 00:31:37;;;;;;;2.25;0.90;;;;;;;4.61;76.02;98523.38;4939554;29;20523;-74
2023/01/18 00:34:04;;;;;;;1.85;0.65;;;;;;;4.61;76.08;98524.25;4941967;28;20039;-74
2023/01/18 00:36:31;;;;;;;1.67;0.43;;;;;;;4.60;75.98;98522.53;4939927;28;20048;-75
2023/01/18 00:38:59;;;;;;;2.95;0.55;;;;;;;4.55;76.01;98524.41;4941902;28;20571;-74
2023/01/18 00:41:27;;;;;;;1.77;0.40;;;;;;;4.60;76.19;98537.19;4937079;28;20054;-74
2023/01/18 00:43:53;;;;;;;2.03;0.32;;;;;;;4.59;75.95;98532.94;4941237;28;20047;-74
2023/01/18 00:46:23;;;;;;;1.65;0.20;;;;;;;4.61;75.78;98539.75;4941624;28;20412;-74
2023/01/18 00:48:51;;;;;;;1.17;0.10;;;;;;;4.61;75.63;98541.47;4941910;28;20047;-74
2023/01/18 00:51:19;;;;;;;1.95;0.65;;;;;;;4.60;75.54;98544.97;4942991;28;20040;-74
2023/01/18 00:53:47;;;;;;;3.40;1.05;;;;;;;4.60;75.58;98545.78;4939360;28;20047;-74
2023/01/18 00:56:15;;;;;;;1.27;0.10;;;;;;;4.55;75.48;98539.91;4942201;28;20048;-73
2023/01/18 00:58:44;;;;;;;1.08;0.10;;;;;;;4.58;75.17;98546.72;4938746;28;20059;-73
2023/01/18 01:01:12;;;;;;;0.47;0.10;;;;;;;4.56;75.16;98546.78;4940583;28;20044;-74
2023/01/18 01:06:45;;;;;;;0.40;0.08;;;;;;;4.53;75.48;98548.63;4936671;28;20144;-74
2023/01/18 01:09:14;;;;;;;1.55;0.10;;;;;;;4.52;75.25;98550.34;4941666;28;20048;-74
2023/01/18 01:12:31;;;;;;;0.28;0.00;;;;;;;4.52;75.50;98555.50;4938367;28;20044;-74
2023/01/18 01:28:11;;;;;;;2.05;0.20;;;;;;;4.42;75.08;98551.53;4941604;28;20062;-73
2023/01/18 01:30:40;;;;;;;0.82;0.17;;;;;;;4.42;75.16;98560.13;4937510;28;20047;-74
2023/01/18 01:33:07;;;;;;;0.43;0.10;;;;;;;4.42;75.17;98560.13;4937528;28;20058;-74
2023/01/18 01:35:33;;;;;;;0.20;0.10;;;;;;;4.41;75.12;98552.41;4939817;28;20052;-74
2023/01/18 01:38:00;;;;;;;0.40;0.10;;;;;;;4.41;75.18;98560.16;4940938;28;20055;-74
2023/01/18 01:40:27;;;;;;;1.67;0.08;;;;;;;4.42;75.17;98569.63;4942057;28;20559;-74
2023/01/18 01:42:54;;;;;;;0.10;0.00;;;;;;;4.42;75.37;98570.47;4942644;28;20050;-74
2023/01/18 01:45:25;;;;;;;0.68;0.00;;;;;;;4.39;75.23;98561.97;4939593;28;20050;-74
2023/01/18 01:47:55;;;;;;;0.40;0.00;;;;;;;4.38;75.27;98570.59;4937730;28;20054;-74
2023/01/18 01:50:26;;;;;;;0.80;0.10;;;;;;;4.39;75.25;98572.28;4938433;28;20403;-74
2023/01/18 01:52:55;;;;;;;0.15;0.00;;;;;;;4.37;75.31;98574.91;4936567;28;20058;-74
2023/01/18 01:55:26;;;;;;;2.20;0.10;;;;;;;4.34;75.18;98566.41;4935940;28;20039;-76
2023/01/18 01:57:57;;;;;;;1.77;0.10;;;;;;;4.36;75.12;98577.56;4939520;28;20054;-74
2023/01/18 02:00:24;;;;;;;2.72;0.10;;;;;;;4.36;75.04;98580.13;4942600;29;20476;-73
2023/01/18 02:02:56;;;;;;;1.95;0.10;;;;;;;4.30;74.98;98581.16;4941801;29;20056;-73
2023/01/18 02:05:24;;;;;;;0.95;0.15;;;;;;;4.33;75.15;98606.91;4940252;28;20051;-74
2023/01/18 02:07:51;;;;;;;0.10;0.08;;;;;;;4.31;75.20;98598.34;4944371;28;20139;-74
2023/01/18 02:10:18;;;;;;;1.98;0.10;;;;;;;4.25;74.99;98598.53;4942236;28;20050;-74
2023/01/18 02:12:48;;;;;;;0.10;0.10;;;;;;;4.32;74.84;98614.69;4943751;28;20933;-74
2023/01/18 02:15:16;;;;;;;0.43;0.10;;;;;;;4.31;74.86;98613.00;4937626;28;20074;-75
2023/01/18 02:17:58;;;;;;;0.20;0.10;;;;;;;4.29;74.90;98613.03;4944364;29;20051;-74
2023/01/18 02:20:54;;;;;;;0.52;0.00;;;;;;;4.29;74.60;98621.63;4943436;28;20057;-74
2023/01/18 02:23:37;;;;;;;0.60;0.10;;;;;;;4.29;74.43;98637.16;4946292;28;20484;-74
2023/01/18 02:26:26;;;;;;;0.80;0.00;;;;;;;4.27;74.42;98646.69;4940962;29;20102;-74
2023/01/18 02:29:01;;;;;;;0.03;0.00;;;;;;;4.24;74.17;98636.44;4942238;29;20047;-74
2023/01/18 02:31:32;;;;;;;1.75;0.00;;;;;;;4.23;73.82;98647.66;4945024;28;20496;-74
2023/01/18 02:34:05;;;;;;;0.73;0.00;;;;;;;4.21;73.95;98657.22;4917090;28;20954;-74
2023/01/18 02:36:38;;;;;;;0.45;0.00;;;;;;;4.22;73.51;98665.81;4937929;28;20058;-73
2023/01/18 02:39:12;;;;;;;0.70;0.00;;;;;;;4.21;73.69;98664.09;4943233;28;20475;-74
2023/01/18 02:47:33;;;;;;;1.95;0.00;;;;;;;4.18;73.56;98696.03;4940362;28;20143;-74
2023/01/18 02:50:00;;;;;;;0.52;0.00;;;;;;;4.16;73.27;98696.97;4941242;28;20516;-74
2023/01/18 02:52:39;;;;;;;0.10;0.00;;;;;;;4.16;72.86;98691.81;4940690;29;20058;-74
2023/01/18 02:55:12;;;;;;;0.00;0.00;;;;;;;4.13;73.06;98695.31;4944259;28;20045;-74
2023/01/18 02:57:40;;;;;;;0.00;0.00;;;;;;;4.11;73.17;98704.00;4941937;28;20071;-74
2023/01/18 03:00:11;;;;;;;0.30;0.00;;;;;;;4.14;73.04;98709.91;4942117;28;20113;-74
2023/01/18 03:02:40;;;;;;;1.65;0.00;;;;;;;4.13;72.96;98717.72;4944570;29;20049;-74
2023/01/18 03:05:10;;;;;;;0.00;0.00;;;;;;;4.12;72.91;98714.28;4941719;28;20054;-74
2023/01/18 03:07:42;;;;;;;0.00;0.00;;;;;;;4.09;72.86;98716.09;4937537;28;20061;-74
2023/01/18 03:10:11;;;;;;;1.40;0.00;;;;;;;4.08;73.09;98720.41;4940318;28;20067;-74
2023/01/18 03:12:47;;;;;;;0.13;0.00;;;;;;;4.09;72.71;98724.69;4942001;28;20051;-74
2023/01/18 03:15:22;;;;;;;0.10;0.00;;;;;;;4.08;72.85;98728.16;4942601;28;20098;-76
2023/01/18 03:17:51;;;;;;;;;;;;;;;4.06;73.20;98737.69;4942052;29;20747;-74
2023/01/18 03:20:24;;;;;;;0.00;0.00;;;;;;;4.04;72.99;98744.63;4944854;28;20309;-74
2023/01/18 03:25:45;;;;;;;0.35;0.00;;;;;;;4.01;73.02;98755.91;4942462;28;20536;-73
2023/01/18 03:33:55;;;;;;;0.25;0.05;;;;;;;3.98;72.85;98760.25;4942520;28;20066;-74
2023/01/18 03:36:25;;;;;;;0.20;0.03;;;;;;;3.94;72.75;98750.91;4941053;28;20488;-74
2023/01/18 03:38:56;;;;;;;0.77;0.00;;;;;;;3.95;72.72;98768.09;4939521;28;20048;-74
2023/01/18 03:41:27;;;;;;;4.47;0.10;;;;;;;3.94;72.18;98764.66;4939593;28;20055;-74
2023/01/18 03:43:58;;;;;;;0.10;0.00;;;;;;;3.94;72.67;98781.91;4941296;28;20057;-74
2023/01/18 03:46:30;;;;;;;0.10;0.00;;;;;;;3.93;72.53;98783.63;4939042;28;20052;-74
2023/01/18 03:48:58;;;;;;;2.30;0.10;;;;;;;3.92;72.44;98788.84;4942727;28;20420;-74
2023/01/18 03:51:33;;;;;;;3.97;0.20;;;;;;;3.91;72.60;98789.72;4941727;28;20568;-74
2023/01/18 03:54:06;;;;;;;1.58;0.00;;;;;;;3.89;72.42;98794.91;4944008;28;20043;-74
2023/01/18 03:56:39;;;;;;;0.63;0.05;;;;;;;3.89;72.63;98806.97;4937895;28;20101;-74
2023/01/18 03:59:07;;;;;;;0.30;0.00;;;;;;;3.89;72.60;98804.41;4945561;28;20047;-74
2023/01/18 04:01:36;;;;;;;0.20;0.08;;;;;;;3.87;72.42;98803.56;4941740;28;20044;-73
2023/01/18 04:04:03;;;;;;;0.93;0.10;;;;;;;3.88;72.56;98813.03;4942834;28;20425;-74
2023/01/18 04:06:32;;;;;;;0.90;0.10;;;;;;;3.87;72.51;98808.75;4940869;28;20437;-73
2023/01/18 04:08:58;;;;;;;0.30;0.00;;;;;;;3.80;72.59;98803.72;4938699;28;20047;-75
2023/01/18 04:11:25;;;;;;;0.88;0.10;;;;;;;3.79;72.32;98804.63;4940812;28;20070;-74
2023/01/18 04:13:53;;;;;;;1.13;0.00;;;;;;;3.85;72.41;98820.88;4944411;28;20920;-74
2023/01/18 04:16:20;;;;;;;1.50;0.10;;;;;;;3.83;72.49;98824.31;4942483;29;20047;-74
2023/01/18 04:18:49;;;;;;;2.45;0.10;;;;;;;3.83;72.23;98824.31;4944807;28;20039;-74
2023/01/18 04:21:15;;;;;;;1.20;0.10;;;;;;;3.81;72.43;98826.09;4941133;28;20485;-74
2023/01/18 04:23:42;;;;;;;2.03;0.20;;;;;;;3.80;72.22;98839.88;4939209;28;20427;-74
2023/01/18 04:26:10;;;;;;;1.48;0.00;;;;;;;3.80;72.36;98839.88;4944142;28;20066;-74
2023/01/18 04:28:37;;;;;;;1.55;0.00;;;;;;;3.77;72.17;98842.53;4942228;28;20047;-74
2023/01/18 04:31:04;;;;;;;1.67;0.20;;;;;;;3.79;72.11;98860.59;4942810;28;20058;-73
2023/01/18 04:33:31;;;;;;;2.08;1.05;;;;;;;3.77;72.24;98850.28;4940378;28;20061;-73
2023/01/18 04:36:00;;;;;;;0.95;0.10;;;;;;;3.77;72.24;98845.13;4943241;28;20055;-74
2023/01/18 04:38:27;;;;;;;1.00;0.10;;;;;;;3.75;71.77;98846.88;4942644;28;20062;-73
2023/01/18 04:40:54;;;;;;;2.08;0.10;;;;;;;3.76;72.17;98861.50;4940989;28;20090;-74
2023/01/18 04:43:20;;;;;;;0.25;0.00;;;;;;;3.74;72.22;98860.69;4939562;28;20052;-74
2023/01/18 04:45:56;;;;;;;1.58;0.10;;;;;;;3.75;71.65;98858.94;4943380;28;20053;-74
2023/01/18 04:48:24;;;;;;;0.45;0.03;;;;;;;3.76;72.20;98866.66;4942194;28;20047;-74
2023/01/18 04:50:52;;;;;;;1.52;0.10;;;;;;;3.77;71.99;98870.94;4941523;28;20051;-74
2023/01/18 04:53:20;;;;;;;1.45;0.10;;;;;;;3.76;72.19;98864.09;4941622;28;20492;-72
2023/01/18 04:55:47;;;;;;;0.70;0.10;;;;;;;3.76;72.28;98876.16;4941932;28;20075;-74
2023/01/18 04:58:15;;;;;;;4.05;0.00;;;;;;;3.74;72.16;98885.66;4942285;28;20074;-74
2023/01/18 05:00:42;;;;;;;1.98;0.10;;;;;;;3.75;72.21;98892.50;4936665;28;20051;-74
2023/01/18 05:03:11;;;;;;;5.18;0.10;;;;;;;3.74;71.79;98889.09;4938220;29;20468;-74
2023/01/18 05:05:39;;;;;;;1.73;0.10;;;;;;;3.72;72.16;98896.00;4940873;28;20051;-74
2023/01/18 05:08:06;;;;;;;4.95;0.80;;;;;;;3.74;71.89;98896.81;4939841;28;20138;-74
2023/01/18 05:10:34;;;;;;;2.83;0.10;;;;;;;3.73;71.91;98897.72;4940769;28;20047;-74
2023/01/18 05:13:01;;;;;;;8.32;0.85;;;;;;;3.74;72.26;98899.41;4938755;28;20097;-74
2023/01/18 05:15:28;;;;;;;3.03;0.15;;;;;;;3.73;72.00;98895.13;4938775;28;20039;-74
2023/01/18 05:17:54;;;;;;;2.75;0.10;;;;;;;3.73;71.95;98902.88;4940499;29;20415;-74
2023/01/18 05:20:21;;;;;;;0.63;0.30;;;;;;;3.73;71.98;98905.47;4942695;28;20054;-73
2023/01/18 05:22:48;;;;;;;3.75;0.55;;;;;;;3.74;71.82;98912.31;4937820;28;20053;-74
2023/01/18 05:25:15;;;;;;;0.65;0.00;;;;;;;3.74;71.87;98908.91;4940796;28;20057;-74
2023/01/18 05:27:44;;;;;;;0.88;0.10;;;;;;;3.73;71.68;98917.50;4941484;29;20067;-74
2023/01/18 05:30:11;;;;;;;1.75;0.10;;;;;;;3.73;71.77;98915.78;4938087;29;20046;-74
2023/01/18 05:32:38;;;;;;;1.55;0.10;;;;;;;3.71;71.64;98920.13;4939423;28;20071;-75
2023/01/18 05:35:05;;;;;;;3.10;0.20;;;;;;;3.70;71.60;98930.47;4938933;28;20048;-74
2023/01/18 05:37:33;;;;;;;2.40;0.00;;;;;;;3.69;71.63;98927.06;4939059;29;20055;-74
2023/01/18 05:39:59;;;;;;;2.38;0.10;;;;;;;3.68;71.00;98938.28;4940131;29;20053;-72
2023/01/18 05:42:26;;;;;;;0.17;0.00;;;;;;;3.64;71.04;98926.28;4943813;29;20051;-72
2023/01/18 05:44:54;;;;;;;1.98;0.10;;;;;;;3.68;70.83;98940.84;4941899;29;20043;-72
2023/01/18 05:47:21;;;;;;;0.80;0.10;;;;;;;3.67;71.27;98946.03;4942082;28;20048;-72
2023/01/18 05:49:48;;;;;;;1.60;0.10;;;;;;;3.68;71.32;98951.19;4944539;28;20423;-72
2023/01/18 05:52:15;;;;;;;1.10;0.08;;;;;;;3.66;70.54;98957.25;4944333;28;20056;-72
2023/01/18 05:54:42;;;;;;;3.42;0.03;;;;;;;3.66;70.62;98959.84;4941321;29;20054;-72
2023/01/18 05:57:09;;;;;;;1.23;0.20;;;;;;;3.65;70.86;98969.31;4942714;29;20571;-72
2023/01/18 05:59:36;;;;;;;0.55;0.00;;;;;;;3.64;70.44;98977.94;4940569;29;20092;-72
2023/01/18 06:02:05;;;;;;;0.63;0.28;;;;;;;3.64;70.67;98975.34;4941563;28;20054;-72
2023/01/18 06:04:32;;;;;;;1.38;0.10;;;;;;;3.65;70.97;98984.81;4943394;28;20052;-72
2023/01/18 06:06:59;;;;;;;3.40;0.10;;;;;;;3.64;70.89;98988.25;4940626;28;20420;-72
2023/01/18 06:09:25;;;;;;;6.57;0.10;;;;;;;3.63;70.70;98996.91;4942959;28;20059;-72
2023/01/18 06:11:52;;;;;;;0.90;0.00;;;;;;;3.63;71.12;98999.47;4945251;29;20398;-72
2023/01/18 06:14:19;;;;;;;4.03;0.10;;;;;;;3.63;70.74;98999.47;4940849;28;20058;-72
2023/01/18 06:16:46;;;;;;;1.48;0.00;;;;;;;3.64;71.06;99002.91;4944858;29;20047;-72
2023/01/18 06:19:14;;;;;;;0.13;0.03;;;;;;;3.63;71.02;98996.91;4942957;28;20063;-72
2023/01/18 06:21:41;;;;;;;1.67;0.10;;;;;;;3.63;70.86;99004.63;4943353;28;20052;-72
2023/01/18 06:24:08;;;;;;;3.03;0.10;;;;;;;3.63;70.52;99007.22;4942236;28;20047;-72
2023/01/18 06:26:35;;;;;;;0.77;0.10;;;;;;;3.60;71.14;99002.13;4942169;28;20070;-72
2023/01/18 06:29:02;;;;;;;0.22;0.00;;;;;;;3.62;71.16;99017.59;4940364;28;20044;-72
2023/01/18 06:31:29;;;;;;;1.73;0.10;;;;;;;3.59;71.07;99031.41;4941324;28;20067;-72
2023/01/18 06:33:56;;;;;;;0.10;0.00;;;;;;;3.58;70.54;99034.84;4944475;28;20497;-72
2023/01/18 06:36:24;;;;;;;2.30;0.10;;;;;;;3.56;70.86;99044.38;4944904;28;20411;-72
2023/01/18 06:38:51;;;;;;;1.85;0.10;;;;;;;3.56;70.75;99052.13;4942820;29;20055;-72
2023/01/18 06:41:18;;;;;;;0.82;0.00;;;;;;;3.55;71.14;99056.41;4943845;28;20052;-72
2023/01/18 06:43:45;;;;;;;1.45;0.35;;;;;;;3.53;70.21;99058.19;4942882;28;20397;-72
2023/01/18 06:46:12;;;;;;;1.75;0.10;;;;;;;3.52;70.75;99068.53;4940268;28;20041;-72
2023/01/18 06:48:39;;;;;;;1.23;0.10;;;;;;;3.51;70.47;99064.25;4942196;28;20053;-72
2023/01/18 06:51:06;;;;;;;0.10;0.00;;;;;;;3.50;70.85;99070.28;4939338;28;20047;-72
2023/01/18 06:53:34;;;;;;;2.05;0.10;;;;;;;3.48;70.78;99078.06;4941692;28;20048;-72
2023/01/18 06:56:01;;;;;;;0.30;0.00;;;;;;;3.47;70.70;99083.22;4942637;29;20043;-72
2023/01/18 06:58:31;;;;;;;0.30;0.10;;;;;;;3.45;70.49;99079.84;4941448;28;20472;-72
2023/01/18 07:00:59;;;;;;;1.88;0.10;;;;;;;3.44;70.73;99084.13;4943864;28;20055;-72
2023/01/18 07:03:28;;;;;;;4.70;0.45;;;;;;;3.40;70.48;99091.97;4939812;28;20052;-72
2023/01/18 07:05:55;;;;;;;0.93;0.00;;;;;;;3.40;70.99;99102.28;4939847;28;20055;-72
2023/01/18 07:08:23;;;;;;;1.08;0.05;;;;;;;3.32;70.54;99089.50;4942274;29;20047;-72
2023/01/18 07:10:52;;;;;;;1.70;0.20;;;;;;;3.38;71.16;99102.31;4938838;28;20521;-72
2023/01/18 07:13:19;;;;;;;0.70;0.10;;;;;;;3.35;70.96;99100.63;4940221;28;20095;-72
2023/01/18 07:15:46;;;;;;;1.08;0.00;;;;;;;3.35;70.69;99105.78;4941971;28;20050;-72
2023/01/18 07:18:14;;;;;;;2.25;0.17;;;;;;;3.35;71.04;99112.69;4942506;28;20051;-72
2023/01/18 07:20:41;;;;;;;1.02;0.10;;;;;;;3.33;71.05;99117.00;4940717;28;20130;-72
2023/01/18 07:23:08;;;;;;;0.52;0.10;;;;;;;3.32;71.11;99123.06;4941261;28;20646;-72
2023/01/18 07:25:35;;;;;;;1.75;0.10;;;;;;;3.29;70.66;99129.13;4942048;29;20098;-72
2023/01/18 07:28:03;;;;;;;1.88;0.10;;;;;;;3.29;70.63;99131.69;4940075;28;20043;-72
2023/01/18 07:30:30;;;;;;;0.20;0.10;;;;;;;3.27;71.18;99141.22;4942677;28;20052;-72
2023/01/18 07:32:57;;;;;;;1.17;0.10;;;;;;;3.26;71.05;99143.81;4939947;28;20057;-73
2023/01/18 07:35:24;;;;;;;7.43;0.52;;;;;;;3.24;71.21;99145.53;4940107;28;20047;-72
2023/01/18 07:37:53;;;;;;;0.75;0.10;;;;;;;3.22;70.76;99143.00;4935488;28;20048;-72
2023/01/18 07:40:20;;;;;;;1.35;0.30;;;;;;;3.22;70.93;99155.91;4940511;28;20048;-72
2023/01/18 07:42:47;;;;;;;1.13;0.10;;;;;;;3.19;71.34;99158.53;4943825;28;20078;-72
2023/01/18 07:45:16;;;;;;;4.30;0.20;;;;;;;3.20;71.38;99169.69;4941475;28;20054;-72
2023/01/18 07:47:44;;;;;;;1.80;0.10;;;;;;;3.16;71.38;99156.00;4939251;28;20058;-72
2023/01/18 07:50:12;;;;;;;3.83;0.20;;;;;;;3.03;71.24;99157.03;4942025;29;20571;-72
2023/01/18 07:52:39;;;;;;;0.68;0.10;;;;;;;3.14;71.52;99178.38;4939185;28;20047;-72
2023/01/18 07:55:07;;;;;;;2.17;0.10;;;;;;;3.14;71.33;99183.53;4942786;28;20448;-72
2023/01/18 07:57:34;;;;;;;1.65;0.20;;;;;;;3.11;71.09;99189.59;4938905;28;20051;-72
2023/01/18 08:00:01;;;;;;;0.70;0.10;;;;;;;3.11;70.99;99199.91;4940030;28;20051;-72
2023/01/18 08:02:29;;;;;;;3.03;0.10;;;;;;;3.09;71.25;99206.81;4938092;28;20274;-72
2023/01/18 08:04:56;;;;;;;3.60;0.20;;;;;;;3.10;71.32;99212.81;4938114;28;20069;-72
2023/01/18 08:07:24;;;;;;;2.58;0.20;;;;;;;3.08;71.21;99215.44;4940966;28;20051;-72
2023/01/18 08:09:51;;;;;;;0.95;0.25;;;;;;;3.10;71.20;99223.13;4939764;28;20055;-72
2023/01/18 08:12:18;;;;;;;2.28;0.20;;;;;;;3.10;71.03;99220.56;4941857;28;20063;-72
2023/01/18 08:14:45;;;;;;;2.60;0.20;;;;;;;3.08;71.09;99220.59;4938620;28;20051;-72
2023/01/18 08:17:12;;;;;;;1.33;0.10;;;;;;;3.10;71.77;99233.44;4943016;29;20455;-71
2023/01/18 08:19:40;;;;;;;1.23;0.15;;;;;;;3.08;71.28;99220.59;4938613;28;20142;-72
2023/01/18 08:22:08;;;;;;;1.80;0.38;;;;;;;3.00;71.12;99217.25;4941452;28;20058;-72
2023/01/18 08:24:35;;;;;;;3.33;0.20;;;;;;;3.08;71.30;99240.38;4941817;29;20059;-71
2023/01/18 08:27:02;;;;;;;2.60;0.13;;;;;;;3.09;71.37;99245.50;4940868;28;20043;-72
2023/01/18 08:29:29;;;;;;;1.00;0.10;;;;;;;3.09;70.86;99236.91;4939722;29;20050;-72
2023/01/18 08:31:55;;;;;;;3.08;0.10;;;;;;;3.10;71.03;99238.59;4938130;28;20051;-73
2023/01/18 08:34:22;;;;;;;4.60;0.55;;;;;;;3.10;71.00;99242.06;4940022;28;20440;-72
2023/01/18 08:36:51;;;;;;;1.25;0.20;;;;;;;3.11;70.79;99245.50;4941236;28;20514;-73
2023/01/18 08:39:17;;;;;;;1.15;0.20;;;;;;;3.10;71.27;99244.66;4942448;28;20051;-72
2023/01/18 08:41:45;;;;;;;2.72;0.20;;;;;;;3.11;71.32;99248.09;4942728;28;20508;-72
2023/01/18 08:44:12;;;;;;;3.00;0.20;;;;;;;3.11;71.12;99245.50;4940316;28;20103;-72
2023/01/18 08:46:39;;;;;;;2.38;0.20;;;;;;;3.12;70.84;99254.94;4939587;28;20171;-72
2023/01/18 08:49:06;;;;;;;2.40;0.68;;;;;;;3.12;70.92;99257.50;4941724;28;20059;-72
2023/01/18 08:51:33;;;;;;;2.92;0.40;;;;;;;3.10;70.68;99264.41;4939282;28;20047;-72
2023/01/18 08:54:01;;;;;;;4.38;1.60;;;;;;;3.10;70.48;99272.16;4941647;28;20047;-72
2023/01/18 08:56:29;;;;;;;3.08;0.40;;;;;;;3.10;70.83;99283.34;4943280;28;20054;-72
2023/01/18 08:58:56;;;;;;;4.85;0.52;;;;;;;3.10;70.61;99278.19;4942100;28;20052;-72
2023/01/18 09:01:23;;;;;;;4.63;0.30;;;;;;;3.10;70.37;99285.06;4943090;29;20075;-72
2023/01/18 09:03:53;;;;;;;2.45;0.40;;;;;;;3.07;70.83;99290.25;4937174;28;20051;-72
2023/01/18 09:06:20;;;;;;;9.18;0.30;;;;;;;3.01;70.76;99291.19;4938113;28;20039;-72
2023/01/18 09:08:48;;;;;;;0.75;0.20;;;;;;;3.09;70.80;99304.84;4939475;28;20059;-72
2023/01/18 09:11:17;;;;;;;7.07;1.50;;;;;;;3.09;70.59;99310.00;4938534;28;20039;-72
2023/01/18 09:13:44;;;;;;;2.92;0.20;;;;;;;3.10;70.30;99313.44;4940884;28;20719;-72
2023/01/18 09:16:13;;;;;;;0.80;0.20;;;;;;;3.09;70.69;99306.56;4943548;29;20411;-72
2023/01/18 09:18:39;;;;;;;5.68;0.90;;;;;;;3.08;70.12;99308.31;4940444;29;20083;-72
2023/01/18 09:21:08;;;;;;;1.42;0.50;;;;;;;3.10;70.11;99306.56;4943613;28;20066;-73
2023/01/18 09:23:36;;;;;;;1.33;0.20;;;;;;;3.10;70.23;99309.16;4941902;28;20453;-75
2023/01/18 09:26:05;;;;;;;2.33;0.38;;;;;;;3.12;70.91;99315.13;4944710;29;20047;-74
2023/01/18 09:28:33;;;;;;;5.18;0.20;;;;;;;3.13;70.52;99311.69;4944210;29;20102;-74
2023/01/18 09:31:01;;;;;;;8.13;0.40;;;;;;;3.15;70.54;99303.91;4945649;28;20080;-74
2023/01/18 09:33:28;;;;;;;3.03;0.30;;;;;;;3.16;70.41;99310.81;4943018;28;20058;-74
2023/01/18 09:35:56;;;;;;;7.15;0.35;;;;;;;3.17;70.17;99316.81;4946327;28;20069;-75
2023/01/18 09:38:23;;;;;;;2.38;0.20;;;;;;;3.18;70.58;99314.19;4946331;29;20053;-74
2023/01/18 09:40:53;;;;;;;3.80;0.30;;;;;;;3.19;70.38;99309.88;4939530;28;20043;-74
2023/01/18 09:43:28;;;;;;;5.32;0.22;;;;;;;3.20;70.22;99312.47;4941848;29;20055;-74
2023/01/18 09:45:56;;;;;;;7.78;1.00;;;;;;;3.21;70.65;99324.47;4943622;28;20073;-75
2023/01/18 09:48:31;;;;;;;0.75;0.20;;;;;;;3.24;70.46;99319.28;4947699;29;20050;-74
2023/01/18 09:51:01;;;;;;;8.90;0.52;;;;;;;3.26;70.52;99319.28;4945575;28;20047;-75
2023/01/18 09:53:45;;;;;;;4.78;0.20;;;;;;;3.29;70.91;99329.56;4943972;28;20054;-74
2023/01/18 09:56:18;;;;;;;4.03;0.30;;;;;;;3.30;70.63;99337.31;4946222;29;20420;-74
2023/01/18 09:58:59;;;;;;;3.58;0.20;;;;;;;3.28;70.77;99331.28;4941360;28;20047;-74
2023/01/18 10:01:31;;;;;;;4.07;0.30;;;;;;;3.35;70.37;99338.06;4942487;28;20475;-73
2023/01/18 10:04:02;;;;;;;7.47;0.60;;;;;;;3.39;70.47;99346.66;4944839;28;20504;-74
2023/01/18 10:06:37;;;;;;;3.25;0.52;;;;;;;3.41;70.71;99347.47;4944710;29;20314;-74
2023/01/18 10:09:06;;;;;;;1.88;0.20;;;;;;;3.43;70.81;99340.56;4943726;29;20047;-74
2023/01/18 10:11:43;;;;;;;1.20;0.25;;;;;;;3.47;70.47;99351.69;4940879;28;20052;-73
2023/01/18 10:14:17;;;;;;;6.50;0.40;;;;;;;3.49;70.39;99347.38;4944198;28;20130;-73
2023/01/18 10:16:54;;;;;;;5.07;0.20;;;;;;;3.52;70.40;99347.34;4942402;29;20074;-74
2023/01/18 10:19:26;;;;;;;2.65;0.30;;;;;;;3.54;70.55;99336.13;4943252;29;20058;-74
2023/01/18 10:21:57;;;;;;;5.80;0.68;;;;;;;3.57;70.41;99337.81;4941170;28;20051;-74
2023/01/18 10:24:47;;;;;;;5.55;0.65;;;;;;;3.57;70.54;99328.34;4943995;29;20127;-75
2023/01/18 10:27:35;;;;;;;5.57;0.25;;;;;;;3.63;70.56;99344.63;4943752;29;20075;-73
2023/01/18 10:30:14;;;;;;;2.65;0.20;;;;;;;3.63;69.94;99353.22;4945506;28;20051;-74
2023/01/18 10:32:50;;;;;;;2.55;0.20;;;;;;;3.66;70.55;99353.19;4940746;28;20051;-74
2023/01/18 10:35:26;;;;;;;8.35;0.28;;;;;;;3.66;70.15;99348.00;4943731;28;20048;-75
2023/01/18 10:37:57;;;;;;;4.80;0.20;;;;;;;3.70;69.68;99354.88;4940766;28;20460;-74
2023/01/18 10:40:24;;;;;;;3.33;0.20;;;;;;;3.71;69.46;99359.13;4942555;28;20071;-74
2023/01/18 10:42:55;;;;;;;3.20;0.40;;;;;;;3.71;69.87;99351.41;4941522;28;20048;-74
2023/01/18 10:45:25;;;;;;;3.42;1.75;;;;;;;3.73;69.47;99354.81;4941799;28;20048;-74
2023/01/18 10:47:56;;;;;;;3.22;0.20;;;;;;;3.75;69.33;99359.94;4942186;29;20039;-74
2023/01/18 10:50:35;;;;;;;2.17;0.10;;;;;;;3.59;69.22;99330.91;4941534;29;20055;-74
2023/01/18 10:53:21;;;;;;;2.03;0.20;;;;;;;3.77;68.92;99360.78;4943920;28;20071;-74
2023/01/18 10:55:58;;;;;;;5.93;0.22;;;;;;;3.77;69.01;99356.47;4941548;28;20401;-74
2023/01/18 10:58:29;;;;;;;6.18;0.20;;;;;;;3.79;68.83;99357.31;4944008;28;20102;-74
2023/01/18 11:00:58;;;;;;;2.63;0.20;;;;;;;3.79;68.34;99367.66;4943165;28;20046;-74
2023/01/18 11:03:27;;;;;;;5.28;0.77;;;;;;;3.80;68.18;99371.06;4945111;28;20058;-74
2023/01/18 11:06:04;;;;;;;2.80;0.20;;;;;;;3.80;67.87;99368.50;4948366;28;20745;-74
2023/01/18 11:08:33;;;;;;;3.92;0.30;;;;;;;3.78;67.83;99383.16;4944647;29;20070;-74
2023/01/18 11:11:02;;;;;;;1.42;0.10;;;;;;;3.76;67.56;99385.78;4941220;28;20605;-74
2023/01/18 11:13:33;;;;;;;2.20;0.77;;;;;;;3.78;67.47;99388.31;4944200;29;20059;-74
2023/01/18 11:16:12;;;;;;;3.28;0.30;;;;;;;3.77;67.60;99386.63;4941476;28;20526;-73
2023/01/18 11:18:55;;;;;;;2.30;0.60;;;;;;;3.69;67.25;99385.84;4938685;28;20074;-75
2023/01/18 11:21:23;;;;;;;1.00;0.10;;;;;;;3.66;67.08;99383.31;4941243;28;20039;-75
2023/01/18 11:23:51;;;;;;;1.05;0.20;;;;;;;3.74;67.02;99390.09;4942934;28;20320;-74
2023/01/18 11:26:19;;;;;;;2.53;0.20;;;;;;;3.75;66.67;99399.53;4938700;29;20047;-74
2023/01/18 11:28:50;;;;;;;5.05;0.30;;;;;;;3.77;66.79;99402.13;4938994;29;20052;-75
2023/01/18 11:31:20;;;;;;;5.10;0.20;;;;;;;3.75;66.32;99399.53;4943807;28;20045;-74
2023/01/18 11:33:54;;;;;;;3.08;0.30;;;;;;;3.75;66.31;99393.53;4940748;28;20056;-74
2023/01/18 11:36:34;;;;;;;0.55;0.10;;;;;;;3.74;66.94;99395.25;4941536;28;20062;-75
2023/01/18 11:39:33;;;;;;;2.47;0.20;;;;;;;3.74;66.56;99405.59;4941646;29;20489;-75
2023/01/18 11:42:27;;;;;;;4.07;0.20;;;;;;;3.74;66.76;99403.00;4944795;28;20066;-76
2023/01/18 11:45:03;;;;;;;6.13;0.30;;;;;;;3.72;66.05;99399.56;4932598;28;20043;-74
2023/01/18 11:47:36;;;;;;;2.90;0.17;;;;;;;3.72;66.31;99396.16;4943103;29;20062;-76
2023/01/18 11:50:13;;;;;;;3.95;0.15;;;;;;;3.71;66.33;99403.03;4940997;29;20047;-75
2023/01/18 11:52:50;;;;;;;0.98;0.10;;;;;;;3.73;66.12;99405.59;4937458;28;20067;-74
2023/01/18 11:55:25;;;;;;;3.90;0.13;;;;;;;3.64;66.05;99385.06;4940918;28;20043;-73
2023/01/18 11:57:53;;;;;;;8.73;0.68;;;;;;;3.72;65.93;99398.72;4943968;29;20047;-74
2023/01/18 12:00:26;;;;;;;1.40;0.50;;;;;;;3.72;66.21;99396.16;4939269;28;20044;-74
2023/01/18 12:03:26;;;;;;;0.73;0.20;;;;;;;3.71;65.43;99395.28;4938473;28;20471;-73
2023/01/18 12:06:02;;;;;;;1.92;0.25;;;;;;;3.70;65.98;99398.75;4939487;29;20043;-73
2023/01/18 12:09:02;;;;;;;1.20;0.10;;;;;;;3.70;65.95;99397.88;4940953;28;20055;-74
2023/01/18 12:11:46;;;;;;;0.63;0.10;;;;;;;3.69;65.75;99409.94;4909607;28;20141;-75
2023/01/18 12:14:48;;;;;;;4.28;0.20;;;;;;;3.68;65.51;99420.31;4940992;28;20130;-76
2023/01/18 12:17:33;;;;;;;2.72;0.10;;;;;;;3.67;65.79;99426.34;4942775;29;20051;-75
2023/01/18 12:20:18;;;;;;;4.80;0.20;;;;;;;3.66;65.31;99420.31;4945857;28;20419;-75
2023/01/18 12:22:54;;;;;;;;;;;;;;;3.65;66.12;99418.63;4943144;28;20134;-74
2023/01/18 12:25:54;;;;;;;4.75;0.10;;;;;;;3.65;65.87;99423.78;4941036;28;19930;-76
2023/01/18 12:28:31;;;;;;;1.77;0.43;;;;;;;3.63;65.78;99417.78;4940273;28;20066;-76